Time;durP1;ratioP1;P1;durP2;ratioP2;P2;SDS_P1;SDS_P2;PMS_P1;PMS_P2;Temp;Humidity;BMP_temperature;BMP_pressure;BME280_temperature;BME280_humidity;BME280_pressure;Samples;Min_cycle;Max_cycle;Signal;HPM_P1;HPM_P2
2021/12/06 00:00:39;;;;;;;;;;;21.80;94.30;;;;;;5093561;28;19999;-63
2021/12/06 00:03:07;;;;;;;;;;;21.70;94.40;;;;;;5093645;28;19915;-63
2021/12/06 00:05:34;;;;;;;;;;;21.80;94.70;;;;;;5093691;28;19912;-63
2021/12/06 00:08:02;;;;;;;;;;;21.80;94.30;;;;;;5094164;28;20353;-63
2021/12/06 00:10:29;;;;;;;;;;;21.90;94.10;;;;;;5093569;28;19915;-63
2021/12/06 00:12:56;;;;;;;;;;;22.20;93.80;;;;;;5094023;28;20330;-63
2021/12/06 00:15:23;;;;;;;;;;;22.40;93.70;;;;;;5093438;28;20284;-63
2021/12/06 00:17:50;;;;;;;;;;;22.60;93.10;;;;;;5093380;28;19908;-63
2021/12/06 00:20:17;;;;;;;;;;;22.80;92.90;;;;;;5093243;28;19912;-63
2021/12/06 00:22:44;;;;;;;;;;;22.70;92.70;;;;;;5093381;28;20003;-63
2021/12/06 00:25:14;;;;;;;;;;;22.70;93.10;;;;;;5075246;28;20283;-63
2021/12/06 00:27:41;;;;;;;;;;;22.70;93.00;;;;;;5075229;28;19908;-63
2021/12/06 00:30:10;;;;;;;;;;;22.60;93.00;;;;;;5093316;28;20007;-63
2021/12/06 00:32:39;;;;;;;;;;;22.50;93.60;;;;;;5093211;28;19987;-63
2021/12/06 00:35:06;;;;;;;;;;;22.50;93.50;;;;;;5093222;28;19908;-63
2021/12/06 00:37:42;;;;;;;;;;;22.50;93.80;;;;;;5093305;28;19918;-63
2021/12/06 00:40:09;;;;;;;;;;;22.50;93.90;;;;;;5074799;28;19920;-63
2021/12/06 00:42:36;;;;;;;;;;;22.50;93.80;;;;;;5093146;28;20249;-63
2021/12/06 00:45:07;;;;;;;;;;;22.40;93.70;;;;;;5093133;28;19912;-63
2021/12/06 00:47:33;;;;;;;;;;;22.40;93.70;;;;;;5093050;28;19913;-63
2021/12/06 00:50:01;;;;;;;;;;;22.30;93.60;;;;;;5093145;28;19947;-63
2021/12/06 00:52:27;;;;;;;;;;;22.30;93.30;;;;;;5074908;28;19948;-63
2021/12/06 00:54:54;;;;;;;;;;;22.40;93.50;;;;;;5093052;28;19962;-63
2021/12/06 00:57:21;;;;;;;;;;;22.40;93.70;;;;;;5093029;28;19909;-63
2021/12/06 00:59:48;;;;;;;;;;;22.40;93.60;;;;;;5092676;28;19926;-63
2021/12/06 01:02:15;;;;;;;;;;;22.50;93.90;;;;;;5092955;28;19908;-63
2021/12/06 01:04:42;;;;;;;;;;;22.60;93.50;;;;;;5092959;28;20345;-63
2021/12/06 01:07:09;;;;;;;;;;;22.60;92.90;;;;;;5092977;28;19908;-63
2021/12/06 01:09:36;;;;;;;;;;;22.70;92.80;;;;;;5092930;28;19912;-63
2021/12/06 01:12:04;;;;;;;;;;;22.90;92.70;;;;;;5092878;28;19964;-63
2021/12/06 01:14:31;;;;;;;;;;;23.00;92.60;;;;;;5092819;28;19960;-63
2021/12/06 01:16:58;;;;;;;;;;;23.10;92.60;;;;;;5092868;28;19948;-63
2021/12/06 01:19:29;;;;;;;;;;;23.10;92.40;;;;;;5092608;28;20360;-63
2021/12/06 01:22:15;;;;;;;;;;;23.00;92.00;;;;;;5092805;28;20364;-63
2021/12/06 01:24:52;;;;;;;;;;;23.00;92.10;;;;;;5092800;28;19930;-63
2021/12/06 01:27:49;;;;;;;;;;;23.00;92.00;;;;;;5077093;28;20265;-63
2021/12/06 01:33:04;;;;;;;;;;;23.20;92.10;;;;;;5096586;28;19920;-63
2021/12/06 01:40:59;;;;;;;;;;;23.70;91.40;;;;;;5096010;28;19974;-63
2021/12/06 01:43:26;;;;;;;;;;;23.70;91.40;;;;;;5096356;28;19908;-63
2021/12/06 01:45:53;;;;;;;;;;;23.60;91.40;;;;;;5096248;28;19919;-63
2021/12/06 01:48:20;;;;;;;;;;;23.50;91.30;;;;;;5096291;28;19919;-63
2021/12/06 01:50:47;;;;;;;;;;;23.40;91.40;;;;;;5077949;28;19908;-63
2021/12/06 01:53:14;;;;;;;;;;;23.30;91.70;;;;;;5096102;28;20387;-63
2021/12/06 01:55:41;;;;;;;;;;;23.10;91.70;;;;;;5096117;28;19909;-63
2021/12/06 01:58:08;;;;;;;;;;;22.90;91.80;;;;;;5096044;28;19908;-63
2021/12/06 02:00:38;;;;;;;;;;;22.70;92.00;;;;;;5095839;28;19912;-63
2021/12/06 02:03:05;;;;;;;;;;;22.60;92.00;;;;;;5095907;28;20494;-63
2021/12/06 02:05:32;;;;;;;;;;;22.50;92.20;;;;;;5095914;28;20376;-63
2021/12/06 02:07:59;;;;;;;;;;;22.40;92.60;;;;;;5095882;28;19931;-63
2021/12/06 02:10:27;;;;;;;;;;;22.40;92.30;;;;;;5095750;28;19908;-63
2021/12/06 02:12:55;;;;;;;;;;;22.30;92.50;;;;;;5077594;28;19990;-63
2021/12/06 02:17:58;;;;;;;;;;;22.30;92.70;;;;;;5095668;28;19908;-63
2021/12/06 02:20:28;;;;;;;;;;;22.30;92.90;;;;;;5077477;28;19913;-63
2021/12/06 02:22:55;;;;;;;;;;;22.30;92.90;;;;;;5095692;28;20382;-63
2021/12/06 02:25:22;;;;;;;;;;;22.30;93.00;;;;;;5077366;28;19947;-63
2021/12/06 02:27:50;;;;;;;;;;;22.30;92.90;;;;;;5095555;28;19908;-63
2021/12/06 02:30:17;;;;;;;;;;;22.20;92.60;;;;;;5095329;28;19909;-63
2021/12/06 02:32:44;;;;;;;;;;;22.20;92.80;;;;;;5095391;28;19908;-63
2021/12/06 02:35:14;;;;;;;;;;;22.20;92.80;;;;;;5095329;28;20360;-63
2021/12/06 02:37:41;;;;;;;;;;;22.20;92.90;;;;;;5095231;28;19962;-63
2021/12/06 02:40:15;;;;;;;;;;;22.20;93.00;;;;;;5094861;28;20314;-63
2021/12/06 02:42:44;;;;;;;;;;;22.20;93.20;;;;;;5095138;28;19908;-63
2021/12/06 02:45:12;;;;;;;;;;;22.20;93.20;;;;;;5095137;28;19999;-63
2021/12/06 02:47:39;;;;;;;;;;;22.20;92.90;;;;;;5095169;28;19908;-63
2021/12/06 02:50:08;;;;;;;;;;;22.20;93.00;;;;;;5095054;28;19966;-63
2021/12/06 02:52:36;;;;;;;;;;;22.20;93.00;;;;;;5095080;28;19931;-63
2021/12/06 02:55:11;;;;;;;;;;;22.30;93.00;;;;;;5095039;28;20262;-63
2021/12/06 02:57:38;;;;;;;;;;;22.30;93.00;;;;;;5094929;28;19940;-63
2021/12/06 03:00:08;;;;;;;;;;;22.30;93.00;;;;;;5094655;28;19919;-63
2021/12/06 03:02:35;;;;;;;;;;;22.20;93.10;;;;;;5094820;28;19908;-63
2021/12/06 03:05:03;;;;;;;;;;;22.20;93.00;;;;;;5094680;28;19908;-63
2021/12/06 03:07:33;;;;;;;;;;;22.10;93.10;;;;;;5094799;28;20349;-63
2021/12/06 03:10:00;;;;;;;;;;;22.00;93.20;;;;;;5094532;28;20280;-63
2021/12/06 03:12:27;;;;;;;;;;;22.00;93.30;;;;;;5094417;28;20315;-63
2021/12/06 03:14:55;;;;;;;;;;;21.90;93.40;;;;;;5094532;28;20380;-63
2021/12/06 03:17:23;;;;;;;;;;;21.90;93.50;;;;;;5076452;28;19912;-62
2021/12/06 03:19:50;;;;;;;;;;;21.80;93.60;;;;;;5094225;28;19918;-63
2021/12/06 03:22:17;;;;;;;;;;;21.80;93.50;;;;;;5094223;28;19908;-68
2021/12/06 03:24:44;;;;;;;;;;;21.80;93.50;;;;;;5094297;28;20366;-69
2021/12/06 03:27:11;;;;;;;;;;;21.80;93.30;;;;;;5107675;28;19912;-67
2021/12/06 03:29:38;;;;;;;;;;;21.70;93.50;;;;;;5113673;28;19908;-70
2021/12/06 03:32:05;;;;;;;;;;;21.80;93.60;;;;;;5105415;28;20387;-67
2021/12/06 03:34:32;;;;;;;;;;;21.80;93.40;;;;;;5111411;28;19912;-67
2021/12/06 03:37:01;;;;;;;;;;;21.80;93.50;;;;;;5109840;28;19913;-67
2021/12/06 03:39:30;;;;;;;;;;;21.90;93.50;;;;;;5092210;28;20277;-67
2021/12/06 03:41:59;;;;;;;;;;;21.90;93.40;;;;;;5094587;28;19969;-68
2021/12/06 03:44:26;;;;;;;;;;;21.90;93.50;;;;;;5095266;28;19912;-67
2021/12/06 03:46:55;;;;;;;;;;;21.90;93.70;;;;;;5093299;28;19976;-67
2021/12/06 03:49:22;;;;;;;;;;;21.90;93.30;;;;;;5078486;28;19908;-69
2021/12/06 03:51:49;;;;;;;;;;;21.90;93.30;;;;;;5114122;28;19908;-68
2021/12/06 03:54:17;;;;;;;;;;;22.00;93.20;;;;;;5114251;28;19918;-63
2021/12/06 03:56:44;;;;;;;;;;;22.00;93.40;;;;;;5114219;28;20132;-64
2021/12/06 03:59:11;;;;;;;;;;;22.00;93.30;;;;;;5102046;28;19927;-64
2021/12/06 04:01:38;;;;;;;;;;;21.90;93.20;;;;;;5095660;28;20203;-64
2021/12/06 04:04:05;;;;;;;;;;;21.90;93.20;;;;;;5112214;28;19912;-64
2021/12/06 04:06:32;;;;;;;;;;;21.90;93.30;;;;;;5114125;28;19947;-64
2021/12/06 04:08:59;;;;;;;;;;;21.90;93.30;;;;;;5113963;28;19999;-64
2021/12/06 04:11:26;;;;;;;;;;;21.80;93.00;;;;;;5098961;28;20011;-63
2021/12/06 04:13:53;;;;;;;;;;;21.80;93.20;;;;;;5101308;28;19947;-63
2021/12/06 04:16:20;;;;;;;;;;;21.80;93.00;;;;;;5095643;28;20272;-63
2021/12/06 04:18:47;;;;;;;;;;;21.80;92.90;;;;;;5093359;28;19908;-63
2021/12/06 04:21:13;;;;;;;;;;;21.80;93.30;;;;;;5094394;28;20364;-63
2021/12/06 04:23:40;;;;;;;;;;;21.80;93.20;;;;;;5103414;28;19955;-63
2021/12/06 04:26:08;;;;;;;;;;;21.80;93.10;;;;;;5093399;28;19908;-64
2021/12/06 04:28:35;;;;;;;;;;;21.70;93.10;;;;;;5110590;28;20257;-63
2021/12/06 04:31:05;;;;;;;;;;;21.70;93.10;;;;;;5113528;28;19908;-63
2021/12/06 04:33:32;;;;;;;;;;;21.70;93.20;;;;;;5105086;28;19912;-63
2021/12/06 04:35:59;;;;;;;;;;;21.70;93.10;;;;;;5109308;28;19908;-63
2021/12/06 04:38:26;;;;;;;;;;;21.60;92.80;;;;;;5113383;28;19914;-64
2021/12/06 04:40:53;;;;;;;;;;;21.60;93.00;;;;;;5094359;28;19924;-63
2021/12/06 04:43:20;;;;;;;;;;;21.60;93.20;;;;;;5093033;28;19913;-63
2021/12/06 04:45:47;;;;;;;;;;;21.60;93.10;;;;;;5093030;28;19994;-63
2021/12/06 04:48:14;;;;;;;;;;;21.60;93.20;;;;;;5093142;28;19909;-63
2021/12/06 04:50:42;;;;;;;;;;;21.70;93.10;;;;;;5094999;28;20438;-64
2021/12/06 04:53:13;;;;;;;;;;;21.80;93.20;;;;;;5111713;28;19908;-65
2021/12/06 04:55:40;;;;;;;;;;;21.90;93.40;;;;;;5113475;28;20000;-64
2021/12/06 04:58:07;;;;;;;;;;;22.00;93.20;;;;;;5094937;28;19907;-64
2021/12/06 05:00:36;;;;;;;;;;;22.00;92.80;;;;;;5094844;28;19911;-64
2021/12/06 05:03:03;;;;;;;;;;;22.10;92.70;;;;;;5117076;28;20359;-65
2021/12/06 05:05:40;;;;;;;;;;;22.10;92.90;;;;;;5117518;28;20048;-63
2021/12/06 05:08:18;;;;;;;;;;;22.10;92.80;;;;;;5117435;28;19908;-61
2021/12/06 05:10:45;;;;;;;;;;;22.10;92.40;;;;;;5098916;28;20296;-62
2021/12/06 05:13:13;;;;;;;;;;;22.10;92.30;;;;;;5117390;28;19907;-61
2021/12/06 05:15:40;;;;;;;;;;;22.10;92.20;;;;;;5078735;28;19908;-63
2021/12/06 05:18:07;;;;;;;;;;;22.10;92.40;;;;;;5097160;28;19914;-61
2021/12/06 05:20:34;;;;;;;;;;;22.00;92.40;;;;;;5096553;28;20292;-62
2021/12/06 05:23:02;;;;;;;;;;;21.90;92.70;;;;;;5096747;28;20280;-63
2021/12/06 05:25:29;;;;;;;;;;;22.00;92.60;;;;;;5096709;28;19912;-63
2021/12/06 05:27:58;;;;;;;;;;;21.90;92.70;;;;;;5079290;28;20448;-63
2021/12/06 05:30:26;;;;;;;;;;;21.90;92.80;;;;;;5096508;28;19915;-63
2021/12/06 05:32:53;;;;;;;;;;;21.90;92.80;;;;;;5096663;28;19912;-63
2021/12/06 05:35:20;;;;;;;;;;;21.90;92.80;;;;;;5096524;28;19919;-63
2021/12/06 05:37:48;;;;;;;;;;;21.80;93.00;;;;;;5096481;28;19953;-63
2021/12/06 05:40:16;;;;;;;;;;;21.80;92.90;;;;;;5095922;28;19926;-63
2021/12/06 05:42:43;;;;;;;;;;;21.70;92.80;;;;;;5096159;28;19912;-63
2021/12/06 05:45:11;;;;;;;;;;;21.70;93.00;;;;;;5097366;28;19963;-62
2021/12/06 05:47:38;;;;;;;;;;;21.60;92.90;;;;;;5113533;28;19942;-64
2021/12/06 05:50:05;;;;;;;;;;;21.60;92.80;;;;;;5116610;28;19932;-62
2021/12/06 05:52:32;;;;;;;;;;;21.50;93.10;;;;;;5116607;28;19915;-63
2021/12/06 05:54:59;;;;;;;;;;;21.50;93.00;;;;;;5098447;28;20002;-63
2021/12/06 05:57:26;;;;;;;;;;;21.50;93.10;;;;;;5116529;28;19908;-62
2021/12/06 05:59:53;;;;;;;;;;;21.50;93.30;;;;;;5116488;28;19919;-61
2021/12/06 06:02:20;;;;;;;;;;;21.60;93.30;;;;;;5115733;28;19980;-62
2021/12/06 06:04:47;;;;;;;;;;;21.60;93.20;;;;;;5116309;28;19911;-62
2021/12/06 06:07:13;;;;;;;;;;;21.60;93.20;;;;;;5097555;28;20287;-62
2021/12/06 06:09:40;;;;;;;;;;;21.60;93.30;;;;;;5095859;28;20352;-62
2021/12/06 06:12:08;;;;;;;;;;;21.60;93.10;;;;;;5095217;28;19908;-62
2021/12/06 06:14:34;;;;;;;;;;;21.60;92.90;;;;;;5095695;28;20336;-62
2021/12/06 06:17:10;;;;;;;;;;;21.60;93.10;;;;;;5077704;28;19908;-62
2021/12/06 06:19:39;;;;;;;;;;;21.70;93.20;;;;;;5095161;28;19908;-62
2021/12/06 06:22:05;;;;;;;;;;;21.70;93.30;;;;;;5095645;28;19908;-62
2021/12/06 06:24:32;;;;;;;;;;;21.70;93.20;;;;;;5095412;28;19961;-62
2021/12/06 06:26:59;;;;;;;;;;;21.70;92.90;;;;;;5077513;28;19914;-62
2021/12/06 06:29:26;;;;;;;;;;;21.70;92.90;;;;;;5095486;28;19912;-62
2021/12/06 06:31:53;;;;;;;;;;;21.80;92.70;;;;;;5095348;28;20082;-62
2021/12/06 06:34:20;;;;;;;;;;;21.90;92.50;;;;;;5077129;28;19912;-62
2021/12/06 06:36:47;;;;;;;;;;;22.10;91.90;;;;;;5095164;28;19961;-62
2021/12/06 06:39:14;;;;;;;;;;;22.40;92.00;;;;;;5095068;28;19957;-62
2021/12/06 06:41:41;;;;;;;;;;;22.60;91.50;;;;;;5095166;28;19966;-62
2021/12/06 06:44:08;;;;;;;;;;;22.90;91.10;;;;;;5092486;28;19972;-65
2021/12/06 06:46:35;;;;;;;;;;;23.10;91.30;;;;;;5115424;28;20253;-63
2021/12/06 06:49:03;;;;;;;;;;;23.00;91.00;;;;;;5097194;28;20347;-63
2021/12/06 06:51:29;;;;;;;;;;;23.00;91.00;;;;;;5115431;28;19915;-63
2021/12/06 06:53:57;;;;;;;;;;;22.90;91.00;;;;;;5115665;28;19908;-63
2021/12/06 06:56:24;;;;;;;;;;;22.90;90.80;;;;;;5109960;28;20227;-63
2021/12/06 06:58:51;;;;;;;;;;;22.80;90.80;;;;;;5100195;28;19916;-62
2021/12/06 07:01:18;;;;;;;;;;;22.70;90.50;;;;;;5094706;28;19916;-62
2021/12/06 07:03:45;;;;;;;;;;;22.70;90.60;;;;;;5094793;28;19912;-63
2021/12/06 07:06:12;;;;;;;;;;;22.60;90.50;;;;;;5095886;28;19908;-63
2021/12/06 07:08:39;;;;;;;;;;;22.70;90.50;;;;;;5094512;28;19912;-62
2021/12/06 07:11:07;;;;;;;;;;;22.70;90.60;;;;;;5094580;28;19987;-64
2021/12/06 07:13:38;;;;;;;;;;;22.60;90.70;;;;;;5076343;28;20038;-63
2021/12/06 07:16:09;;;;;;;;;;;22.50;90.70;;;;;;5077024;28;20321;-62
2021/12/06 07:18:37;;;;;;;;;;;22.40;90.80;;;;;;5076413;28;19912;-62
2021/12/06 07:21:04;;;;;;;;;;;22.30;90.90;;;;;;5094306;28;19923;-63
2021/12/06 07:23:38;;;;;;;;;;;22.20;90.90;;;;;;5092535;28;19908;-64
2021/12/06 07:26:09;;;;;;;;;;;22.10;91.00;;;;;;5059710;28;20395;-62
2021/12/06 07:28:36;;;;;;;;;;;22.10;91.50;;;;;;5076413;28;20425;-62
2021/12/06 07:31:05;;;;;;;;;;;22.00;91.70;;;;;;5094484;28;19908;-62
2021/12/06 07:33:37;;;;;;;;;;;21.90;91.50;;;;;;5076416;28;19916;-62
2021/12/06 07:36:04;;;;;;;;;;;21.80;91.60;;;;;;5094153;28;20341;-62
2021/12/06 07:38:31;;;;;;;;;;;21.80;91.90;;;;;;5094089;28;19908;-62
2021/12/06 07:40:58;;;;;;;;;;;21.70;91.70;;;;;;5072140;28;19924;-62
2021/12/06 07:43:25;;;;;;;;;;;21.70;91.80;;;;;;5073796;28;19950;-62
2021/12/06 07:45:52;;;;;;;;;;;21.60;91.80;;;;;;5073822;28;20316;-62
2021/12/06 07:48:19;;;;;;;;;;;21.60;91.90;;;;;;5072362;28;19957;-62
2021/12/06 07:50:46;;;;;;;;;;;21.60;92.10;;;;;;5073562;28;19916;-62
2021/12/06 07:53:13;;;;;;;;;;;21.50;92.00;;;;;;5089538;28;19935;-62
2021/12/06 07:55:39;;;;;;;;;;;21.50;92.10;;;;;;5094012;28;19949;-63
2021/12/06 07:58:07;;;;;;;;;;;21.40;92.10;;;;;;5093865;28;19953;-63
2021/12/06 08:00:35;;;;;;;;;;;21.30;92.20;;;;;;5092095;28;20509;-63
2021/12/06 08:03:02;;;;;;;;;;;21.30;92.40;;;;;;5093841;28;19909;-63
2021/12/06 08:05:34;;;;;;;;;;;21.30;92.50;;;;;;5093799;28;19915;-63
2021/12/06 08:08:06;;;;;;;;;;;21.20;92.30;;;;;;5089513;28;19951;-63
2021/12/06 08:10:34;;;;;;;;;;;21.20;92.50;;;;;;5076921;28;20050;-63
2021/12/06 08:13:01;;;;;;;;;;;21.10;92.50;;;;;;5073393;28;19908;-63
2021/12/06 08:15:28;;;;;;;;;;;21.10;92.50;;;;;;5071873;28;20422;-63
2021/12/06 08:17:55;;;;;;;;;;;21.10;92.60;;;;;;5073363;28;19908;-63
2021/12/06 08:20:22;;;;;;;;;;;21.00;92.50;;;;;;5072951;28;19912;-63
2021/12/06 08:22:49;;;;;;;;;;;21.00;92.50;;;;;;5074378;28;20530;-63
2021/12/06 08:25:16;;;;;;;;;;;20.90;92.70;;;;;;5086413;28;20407;-63
2021/12/06 08:27:43;;;;;;;;;;;20.80;92.70;;;;;;5077378;28;19936;-63
2021/12/06 08:30:10;;;;;;;;;;;20.90;92.80;;;;;;5086361;28;19961;-63
2021/12/06 08:32:37;;;;;;;;;;;20.80;92.80;;;;;;5076505;28;19912;-64
2021/12/06 08:35:05;;;;;;;;;;;20.80;92.90;;;;;;5082061;28;19912;-68
2021/12/06 08:37:31;;;;;;;;;;;20.70;93.00;;;;;;5088707;28;19912;-72
2021/12/06 08:39:58;;;;;;;;;;;20.70;93.10;;;;;;5094850;28;19927;-69
2021/12/06 08:42:25;;;;;;;;;;;20.70;93.20;;;;;;5113413;28;19935;-66
2021/12/06 08:44:53;;;;;;;;;;;20.60;93.20;;;;;;5099648;28;19919;-66
2021/12/06 08:47:20;;;;;;;;;;;20.60;93.50;;;;;;5104533;28;19990;-67
2021/12/06 08:49:47;;;;;;;;;;;20.60;93.50;;;;;;5110696;28;19919;-68
2021/12/06 08:52:14;;;;;;;;;;;20.60;93.60;;;;;;5090405;28;20143;-65
2021/12/06 08:54:41;;;;;;;;;;;20.50;93.60;;;;;;5095435;28;19917;-61
2021/12/06 08:57:08;;;;;;;;;;;20.50;93.50;;;;;;5098717;28;20277;-64
2021/12/06 08:59:35;;;;;;;;;;;20.40;93.40;;;;;;5098846;28;19912;-63
2021/12/06 09:02:02;;;;;;;;;;;20.40;93.40;;;;;;5099383;28;19912;-63
2021/12/06 09:04:33;;;;;;;;;;;20.40;93.40;;;;;;5099650;28;19972;-63
2021/12/06 09:07:01;;;;;;;;;;;20.40;93.40;;;;;;5113086;28;19931;-63
2021/12/06 09:09:28;;;;;;;;;;;20.40;93.50;;;;;;5110149;28;19919;-63
2021/12/06 09:11:56;;;;;;;;;;;20.30;93.60;;;;;;5093391;28;20281;-63
2021/12/06 09:14:23;;;;;;;;;;;20.30;93.70;;;;;;5093956;28;19964;-62
2021/12/06 09:16:50;;;;;;;;;;;20.30;94.00;;;;;;5098289;28;20280;-68
2021/12/06 09:19:18;;;;;;;;;;;20.30;94.10;;;;;;5093206;28;20261;-63
2021/12/06 09:21:47;;;;;;;;;;;20.20;94.10;;;;;;5093825;28;19916;-62
2021/12/06 09:24:17;;;;;;;;;;;20.20;94.30;;;;;;5102638;28;19939;-62
2021/12/06 09:26:44;;;;;;;;;;;20.10;93.90;;;;;;5101949;28;20004;-62
2021/12/06 09:29:11;;;;;;;;;;;20.10;93.80;;;;;;5106415;28;19912;-62
2021/12/06 09:31:38;;;;;;;;;;;20.00;94.10;;;;;;5108837;28;19982;-62
2021/12/06 09:34:05;;;;;;;;;;;20.00;94.10;;;;;;5109646;28;19911;-63
2021/12/06 09:36:33;;;;;;;;;;;20.00;94.10;;;;;;5094357;28;19912;-62
2021/12/06 09:39:01;;;;;;;;;;;20.00;94.10;;;;;;5105046;28;19916;-62
2021/12/06 09:41:29;;;;;;;;;;;19.90;94.10;;;;;;5085690;28;20376;-63
2021/12/06 09:43:57;;;;;;;;;;;19.90;94.20;;;;;;5110372;28;19965;-62
2021/12/06 09:46:24;;;;;;;;;;;19.90;94.30;;;;;;5077974;28;19915;-62
2021/12/06 09:48:51;;;;;;;;;;;19.90;94.30;;;;;;5112364;28;19920;-62
2021/12/06 09:51:21;;;;;;;;;;;19.90;94.20;;;;;;5111669;28;19919;-62
2021/12/06 09:53:49;;;;;;;;;;;19.90;94.30;;;;;;5107513;28;19907;-62
2021/12/06 09:56:18;;;;;;;;;;;19.90;94.40;;;;;;5116571;28;20346;-62
2021/12/06 09:58:45;;;;;;;;;;;19.90;94.50;;;;;;5106277;28;19912;-62
2021/12/06 10:01:19;;;;;;;;;;;19.90;94.50;;;;;;5096014;28;19923;-62
2021/12/06 10:03:47;;;;;;;;;;;19.90;94.60;;;;;;5105130;28;19980;-62
2021/12/06 10:06:15;;;;;;;;;;;19.90;94.70;;;;;;5116374;28;19923;-62
2021/12/06 10:08:44;;;;;;;;;;;19.80;94.80;;;;;;5115393;28;19924;-62
2021/12/06 10:11:12;;;;;;;;;;;19.80;94.80;;;;;;5116052;28;19911;-63
2021/12/06 10:13:39;;;;;;;;;;;19.80;94.90;;;;;;5116248;28;20346;-62
2021/12/06 10:16:06;;;;;;;;;;;19.80;94.80;;;;;;5097864;28;20248;-63
2021/12/06 10:18:33;;;;;;;;;;;19.70;94.90;;;;;;5116020;28;19907;-62
2021/12/06 10:21:00;;;;;;;;;;;19.70;95.30;;;;;;5101260;28;20356;-62
2021/12/06 10:23:27;;;;;;;;;;;19.70;95.50;;;;;;5099633;28;19912;-63
2021/12/06 10:25:55;;;;;;;;;;;19.70;95.70;;;;;;5105084;28;19960;-62
2021/12/06 10:28:23;;;;;;;;;;;19.60;95.80;;;;;;5116040;28;19995;-62
2021/12/06 10:30:53;;;;;;;;;;;19.60;95.90;;;;;;5112289;28;19916;-62
2021/12/06 10:33:21;;;;;;;;;;;19.60;95.90;;;;;;5111129;28;20513;-62
2021/12/06 10:35:49;;;;;;;;;;;19.60;96.00;;;;;;5112432;28;19968;-62
2021/12/06 10:38:24;;;;;;;;;;;19.60;96.00;;;;;;5111188;28;19912;-62
2021/12/06 10:40:55;;;;;;;;;;;19.60;96.20;;;;;;5111157;28;19930;-62
2021/12/06 10:43:22;;;;;;;;;;;19.50;96.40;;;;;;5103848;28;20010;-63
2021/12/06 10:45:49;;;;;;;;;;;19.50;96.40;;;;;;5106413;28;19999;-61
2021/12/06 10:48:19;;;;;;;;;;;19.50;96.50;;;;;;5099973;28;19915;-65
2021/12/06 10:50:48;;;;;;;;;;;19.50;96.60;;;;;;5115349;28;19908;-62
2021/12/06 10:53:15;;;;;;;;;;;19.50;96.70;;;;;;5103148;28;19908;-61
2021/12/06 10:55:42;;;;;;;;;;;19.40;96.70;;;;;;5094489;28;19961;-60
2021/12/06 10:58:14;;;;;;;;;;;19.40;96.90;;;;;;5094287;28;19908;-60
2021/12/06 11:00:43;;;;;;;;;;;19.40;96.90;;;;;;5094691;28;19916;-64
2021/12/06 11:03:19;;;;;;;;;;;19.40;96.90;;;;;;5095843;28;19961;-62
2021/12/06 11:05:47;;;;;;;;;;;19.30;96.80;;;;;;5102080;28;20376;-61
2021/12/06 11:08:16;;;;;;;;;;;19.30;96.90;;;;;;5076740;28;20364;-61
2021/12/06 11:10:44;;;;;;;;;;;19.30;96.70;;;;;;5094716;28;19908;-62
2021/12/06 11:13:16;;;;;;;;;;;19.30;96.80;;;;;;5094652;28;20064;-61
2021/12/06 11:15:56;;;;;;;;;;;19.30;97.00;;;;;;5094664;28;19915;-61
2021/12/06 11:18:33;;;;;;;;;;;19.30;97.10;;;;;;5094693;28;19908;-61
2021/12/06 11:21:01;;;;;;;;;;;19.30;97.20;;;;;;5094345;28;19912;-61
2021/12/06 11:23:27;;;;;;;;;;;19.30;97.60;;;;;;5094508;28;19908;-61
2021/12/06 11:25:58;;;;;;;;;;;19.30;98.20;;;;;;5094733;28;19962;-61
2021/12/06 11:28:29;;;;;;;;;;;19.30;98.50;;;;;;5094401;28;20326;-61
2021/12/06 11:31:03;;;;;;;;;;;19.30;98.80;;;;;;5076304;28;19915;-61
2021/12/06 11:33:30;;;;;;;;;;;19.20;99.00;;;;;;5094369;28;19909;-61
2021/12/06 11:35:57;;;;;;;;;;;19.20;99.30;;;;;;5076271;28;19908;-61
2021/12/06 11:38:24;;;;;;;;;;;19.20;99.40;;;;;;5094235;28;19908;-61
2021/12/06 11:40:55;;;;;;;;;;;19.20;99.70;;;;;;5075624;28;19920;-61
2021/12/06 11:43:22;;;;;;;;;;;19.10;99.70;;;;;;5099245;28;19911;-61
2021/12/06 11:45:51;;;;;;;;;;;19.10;99.70;;;;;;5096344;28;19915;-63
2021/12/06 11:48:27;;;;;;;;;;;19.10;99.90;;;;;;5096720;28;20405;-61
2021/12/06 11:50:55;;;;;;;;;;;19.10;99.80;;;;;;5114310;28;19908;-61
2021/12/06 11:53:24;;;;;;;;;;;19.10;99.90;;;;;;5114360;28;19908;-61
2021/12/06 11:55:55;;;;;;;;;;;19.10;99.70;;;;;;5114147;28;20373;-62
2021/12/06 11:58:25;;;;;;;;;;;19.00;99.60;;;;;;5096129;28;19961;-61
2021/12/06 12:01:03;;;;;;;;;;;19.00;99.50;;;;;;5113946;28;19911;-61
2021/12/06 12:03:31;;;;;;;;;;;19.00;99.70;;;;;;5113974;28;19976;-65
2021/12/06 12:05:59;;;;;;;;;;;19.00;99.90;;;;;;5114095;28;19912;-61
2021/12/06 12:08:25;;;;;;;;;;;19.00;99.90;;;;;;5114099;28;19908;-61
2021/12/06 12:10:53;;;;;;;;;;;19.00;99.90;;;;;;5108910;28;19912;-61
2021/12/06 12:13:27;;;;;;;;;;;19.00;99.90;;;;;;5094186;28;19936;-61
2021/12/06 12:15:55;;;;;;;;;;;19.00;99.90;;;;;;5093588;28;19930;-61
2021/12/06 12:18:22;;;;;;;;;;;19.00;99.90;;;;;;5093557;28;19930;-61
2021/12/06 12:20:49;;;;;;;;;;;18.90;99.90;;;;;;5093075;28;19919;-61
2021/12/06 12:23:16;;;;;;;;;;;19.00;99.90;;;;;;5093492;28;19908;-61
2021/12/06 12:28:40;;;;;;;;;;;18.90;99.90;;;;;;5074333;28;19908;-61
2021/12/06 12:31:11;;;;;;;;;;;18.90;99.90;;;;;;5075962;28;19940;-61
2021/12/06 12:33:38;;;;;;;;;;;18.90;99.90;;;;;;5093345;28;19908;-61
2021/12/06 12:36:09;;;;;;;;;;;18.90;99.90;;;;;;5093328;28;19908;-61
2021/12/06 12:38:37;;;;;;;;;;;18.90;99.90;;;;;;5093230;28;20019;-63
2021/12/06 12:41:08;;;;;;;;;;;18.90;99.90;;;;;;5092972;28;19924;-61
2021/12/06 12:43:38;;;;;;;;;;;18.90;99.90;;;;;;5075272;28;19931;-61
2021/12/06 12:46:11;;;;;;;;;;;18.80;99.90;;;;;;5091457;28;19912;-61
2021/12/06 12:48:58;;;;;;;;;;;18.80;99.90;;;;;;5091521;28;19995;-61
2021/12/06 12:51:26;;;;;;;;;;;18.80;99.90;;;;;;5073198;28;19994;-61
2021/12/06 12:54:01;;;;;;;;;;;18.80;99.90;;;;;;5091985;28;19908;-61
2021/12/06 12:56:30;;;;;;;;;;;18.90;99.90;;;;;;5092944;28;19908;-61
2021/12/06 12:58:58;;;;;;;;;;;18.90;99.90;;;;;;5075130;28;20007;-61
2021/12/06 13:01:25;;;;;;;;;;;18.90;99.90;;;;;;5092890;28;19912;-61
2021/12/06 13:03:56;;;;;;;;;;;18.80;99.90;;;;;;5075149;28;19916;-61
2021/12/06 13:06:29;;;;;;;;;;;18.80;99.90;;;;;;5093082;28;19995;-61
2021/12/06 13:09:05;;;;;;;;;;;18.80;99.90;;;;;;5074799;28;19995;-61
2021/12/06 13:11:53;;;;;;;;;;;18.80;99.90;;;;;;5092966;28;19919;-61
2021/12/06 13:14:44;;;;;;;;;;;18.80;99.90;;;;;;5092721;28;19908;-61
2021/12/06 13:17:17;;;;;;;;;;;18.80;99.90;;;;;;5074807;28;19908;-61
2021/12/06 13:19:49;;;;;;;;;;;18.80;99.90;;;;;;5092725;28;19908;-61
2021/12/06 13:22:17;;;;;;;;;;;18.80;99.90;;;;;;5093231;28;20292;-61
2021/12/06 13:24:47;;;;;;;;;;;18.80;99.90;;;;;;5078991;28;19931;-61
2021/12/06 13:27:22;;;;;;;;;;;18.80;99.90;;;;;;5096808;28;19993;-61
2021/12/06 13:29:49;;;;;;;;;;;18.70;99.90;;;;;;5096857;28;19908;-61
2021/12/06 13:32:39;;;;;;;;;;;18.70;99.90;;;;;;5097131;28;20003;-61
2021/12/06 13:35:26;;;;;;;;;;;18.70;99.90;;;;;;5083540;28;19908;-61
2021/12/06 13:38:00;;;;;;;;;;;18.70;99.90;;;;;;5096664;28;20007;-61
2021/12/06 13:40:27;;;;;;;;;;;18.70;99.90;;;;;;5096123;28;20368;-61
2021/12/06 13:42:54;;;;;;;;;;;18.70;99.90;;;;;;5096537;28;19911;-61
2021/12/06 13:45:25;;;;;;;;;;;18.70;99.90;;;;;;5078430;28;19916;-61
2021/12/06 13:48:09;;;;;;;;;;;18.60;99.90;;;;;;5096378;28;19927;-61
2021/12/06 13:50:36;;;;;;;;;;;18.60;99.90;;;;;;5096300;28;19908;-61
2021/12/06 13:53:03;;;;;;;;;;;18.60;99.90;;;;;;5096346;28;19909;-61
2021/12/06 13:55:32;;;;;;;;;;;18.60;99.90;;;;;;5078107;28;19957;-61
2021/12/06 13:58:00;;;;;;;;;;;18.60;99.90;;;;;;5096246;28;19908;-61
2021/12/06 14:00:28;;;;;;;;;;;18.60;99.90;;;;;;5077767;28;20018;-61
2021/12/06 14:02:56;;;;;;;;;;;18.60;99.90;;;;;;5096123;28;20379;-61
2021/12/06 14:05:23;;;;;;;;;;;18.60;99.90;;;;;;5096106;28;19908;-61
2021/12/06 14:07:50;;;;;;;;;;;18.60;99.90;;;;;;5096022;28;19909;-61
2021/12/06 14:10:18;;;;;;;;;;;18.60;99.90;;;;;;5077962;28;19981;-61
2021/12/06 14:12:45;;;;;;;;;;;18.60;99.90;;;;;;5095934;28;19911;-61
2021/12/06 14:18:05;;;;;;;;;;;18.60;99.90;;;;;;5064290;28;19980;-61
2021/12/06 14:20:33;;;;;;;;;;;18.60;99.90;;;;;;5095379;28;19912;-61
2021/12/06 14:23:02;;;;;;;;;;;18.60;99.90;;;;;;5095730;28;19908;-61
2021/12/06 14:25:30;;;;;;;;;;;18.60;99.90;;;;;;5095689;28;19962;-61
2021/12/06 14:27:57;;;;;;;;;;;18.60;99.90;;;;;;5095345;28;19962;-61
2021/12/06 14:30:24;;;;;;;;;;;18.60;99.90;;;;;;5095442;28;19908;-61
2021/12/06 14:32:53;;;;;;;;;;;18.60;99.90;;;;;;5095045;28;19915;-61
2021/12/06 14:35:22;;;;;;;;;;;18.50;99.90;;;;;;5095402;28;20373;-61
2021/12/06 14:37:49;;;;;;;;;;;18.50;99.90;;;;;;5095433;28;19915;-61
2021/12/06 14:40:18;;;;;;;;;;;18.50;99.90;;;;;;5076909;28;19927;-61